createdAt,value
2023-05-24T00:02:18.048Z,11.40
2023-05-24T00:04:45.682Z,11.40
2023-05-24T00:07:12.785Z,11.30
2023-05-24T00:09:39.778Z,11.30
2023-05-24T00:12:07.033Z,11.30
2023-05-24T00:14:34.252Z,11.30
2023-05-24T00:17:01.249Z,11.30
2023-05-24T00:19:29.349Z,11.30
2023-05-24T00:21:56.702Z,11.30
2023-05-24T00:24:23.721Z,11.30
2023-05-24T00:26:50.815Z,11.30
2023-05-24T00:29:17.855Z,11.30
2023-05-24T00:31:44.869Z,11.30
2023-05-24T00:34:12.989Z,11.30
2023-05-24T00:36:39.984Z,11.30
2023-05-24T00:39:07.100Z,11.30
2023-05-24T00:41:34.302Z,11.20
2023-05-24T00:44:01.379Z,11.20
2023-05-24T00:46:32.254Z,11.20
2023-05-24T00:49:00.955Z,11.20
2023-05-24T00:51:28.529Z,11.20
2023-05-24T00:53:56.196Z,11.20
2023-05-24T00:56:23.539Z,11.20
2023-05-24T00:58:54.906Z,11.20
2023-05-24T01:01:25.995Z,11.20
2023-05-24T01:03:54.521Z,11.20
2023-05-24T01:06:22.133Z,11.30
2023-05-24T01:09:07.969Z,11.20
2023-05-24T01:11:53.229Z,11.20
2023-05-24T01:14:49.941Z,11.20
2023-05-24T01:17:26.738Z,11.20
2023-05-24T01:20:09.191Z,11.20
2023-05-24T01:23:01.191Z,11.20
2023-05-24T01:25:53.914Z,11.20
2023-05-24T01:28:22.567Z,11.20
2023-05-24T01:30:49.787Z,11.10
2023-05-24T01:33:17.021Z,11.10
2023-05-24T01:35:44.012Z,11.10
2023-05-24T01:38:12.299Z,11.10
2023-05-24T01:40:40.632Z,11.10
2023-05-24T01:43:22.544Z,11.10
2023-05-24T01:46:15.418Z,11.10
2023-05-24T01:49:13.814Z,11.10
2023-05-24T01:51:49.936Z,11.10
2023-05-24T01:54:23.793Z,11.10
2023-05-24T01:56:53.929Z,11.10
2023-05-24T01:59:26.368Z,11.00
2023-05-24T02:01:54.878Z,11.00
2023-05-24T02:04:21.915Z,11.00
2023-05-24T02:06:48.946Z,11.00
2023-05-24T02:09:16.008Z,11.00
2023-05-24T02:11:43.126Z,11.10
2023-05-24T02:14:10.179Z,11.10
2023-05-24T02:16:42.977Z,11.10
2023-05-24T02:19:10.159Z,11.10
2023-05-24T02:21:37.169Z,11.10
2023-05-24T02:24:04.474Z,11.00
2023-05-24T02:26:31.540Z,11.10
2023-05-24T02:28:58.560Z,11.00
2023-05-24T02:31:29.171Z,11.00
2023-05-24T02:33:56.729Z,11.10
2023-05-24T02:36:24.419Z,11.00
2023-05-24T02:38:52.024Z,11.00
2023-05-24T02:41:19.506Z,11.10
2023-05-24T02:43:48.016Z,11.00
2023-05-24T02:46:15.756Z,11.00
2023-05-24T02:48:42.809Z,11.00
2023-05-24T02:51:09.837Z,11.00
2023-05-24T02:53:36.806Z,11.00
2023-05-24T02:56:03.904Z,11.00
2023-05-24T02:58:30.894Z,11.10
2023-05-24T03:00:57.939Z,11.00
2023-05-24T03:03:27.104Z,11.00
2023-05-24T03:05:54.138Z,11.00
2023-05-24T03:08:21.184Z,11.00
2023-05-24T03:10:48.182Z,11.00
2023-05-24T03:13:15.154Z,11.00
2023-05-24T03:15:43.078Z,11.00
2023-05-24T03:18:10.162Z,10.90
2023-05-24T03:20:37.598Z,11.00
2023-05-24T03:23:04.577Z,11.00
2023-05-24T03:25:31.570Z,10.90
2023-05-24T03:27:58.620Z,10.90
2023-05-24T03:30:25.574Z,10.90
2023-05-24T03:32:52.595Z,10.90
2023-05-24T03:35:19.727Z,10.90
2023-05-24T03:37:46.925Z,10.90
2023-05-24T03:40:14.296Z,10.90
2023-05-24T03:42:42.288Z,10.90
2023-05-24T03:45:09.880Z,10.80
2023-05-24T03:47:37.878Z,10.80
2023-05-24T03:50:05.254Z,10.80
2023-05-24T03:52:33.343Z,10.80
2023-05-24T03:55:00.461Z,10.80
2023-05-24T03:57:27.524Z,10.80
2023-05-24T03:59:54.467Z,10.80
2023-05-24T04:02:21.521Z,10.80
2023-05-24T04:04:48.567Z,10.80
2023-05-24T04:07:16.562Z,10.80
2023-05-24T04:09:43.883Z,10.70
2023-05-24T04:12:11.698Z,10.60
2023-05-24T04:14:38.633Z,10.50
2023-05-24T04:17:07.851Z,10.40
2023-05-24T04:19:34.904Z,10.40
2023-05-24T04:22:01.895Z,10.40
2023-05-24T04:24:28.903Z,10.50
2023-05-24T04:26:55.892Z,10.60
2023-05-24T04:29:26.702Z,10.70
2023-05-24T04:31:53.740Z,10.80
2023-05-24T04:34:22.509Z,10.80
2023-05-24T04:36:51.602Z,10.90
2023-05-24T04:39:19.055Z,11.00
2023-05-24T04:41:46.056Z,11.10
2023-05-24T04:44:13.068Z,11.10
2023-05-24T04:46:40.166Z,11.20
2023-05-24T04:49:08.536Z,11.30
2023-05-24T04:51:38.653Z,11.30
2023-05-24T04:54:09.251Z,11.30
2023-05-24T04:56:38.510Z,11.40
2023-05-24T04:59:06.484Z,11.50
2023-05-24T05:01:34.069Z,11.50
2023-05-24T05:04:01.313Z,11.60
2023-05-24T05:06:28.390Z,11.60
2023-05-24T05:08:55.369Z,11.70
2023-05-24T05:11:22.452Z,11.80
2023-05-24T05:13:49.419Z,11.90
2023-05-24T05:16:16.434Z,11.90
2023-05-24T05:18:43.473Z,12.00
2023-05-24T05:21:11.016Z,12.10
2023-05-24T05:23:39.940Z,12.20
2023-05-24T05:26:07.643Z,12.20
2023-05-24T05:28:34.694Z,12.30
2023-05-24T05:31:01.695Z,12.40
2023-05-24T05:33:28.868Z,12.50
2023-05-24T05:35:56.074Z,12.60
2023-05-24T05:38:23.168Z,12.70
2023-05-24T05:40:50.149Z,12.70
2023-05-24T05:43:17.256Z,12.90
2023-05-24T05:45:44.219Z,12.90
2023-05-24T05:48:11.340Z,13.00
2023-05-24T05:50:38.640Z,13.10
2023-05-24T05:53:05.575Z,13.10
2023-05-24T05:55:32.584Z,13.20
2023-05-24T05:57:59.546Z,13.20
2023-05-24T06:00:26.807Z,13.30
2023-05-24T06:02:53.864Z,13.40
2023-05-24T06:05:20.958Z,13.50
2023-05-24T06:07:48.976Z,13.60
2023-05-24T06:10:16.171Z,13.60
2023-05-24T06:12:43.292Z,13.70
2023-05-24T06:15:12.294Z,13.80
2023-05-24T06:17:39.458Z,13.80
2023-05-24T06:20:12.329Z,13.80
2023-05-24T06:22:39.969Z,13.80
2023-05-24T06:25:07.414Z,13.80
2023-05-24T06:27:34.481Z,13.90
2023-05-24T06:30:01.560Z,13.80
2023-05-24T06:32:28.649Z,13.80
2023-05-24T06:34:55.959Z,13.80
2023-05-24T06:37:25.688Z,13.80
2023-05-24T06:39:52.666Z,13.80
2023-05-24T06:42:19.714Z,13.80
2023-05-24T06:44:46.746Z,13.80
2023-05-24T06:47:13.861Z,13.80
2023-05-24T06:49:42.055Z,13.90
2023-05-24T06:52:10.050Z,13.90
2023-05-24T06:54:37.483Z,14.00
2023-05-24T06:57:05.470Z,14.00
2023-05-24T06:59:32.525Z,14.10
2023-05-24T07:02:01.266Z,14.20
2023-05-24T07:04:30.693Z,14.30
2023-05-24T07:06:58.547Z,14.40
2023-05-24T07:09:25.896Z,14.50
2023-05-24T07:11:53.273Z,14.60
2023-05-24T07:14:20.352Z,14.80
2023-05-24T07:16:48.244Z,14.90
2023-05-24T07:19:15.379Z,15.10
2023-05-24T07:21:42.558Z,15.20
2023-05-24T07:24:09.531Z,15.50
2023-05-24T07:26:36.817Z,15.80
2023-05-24T07:29:03.768Z,16.10
2023-05-24T07:31:32.659Z,16.40
2023-05-24T07:33:59.686Z,16.70
2023-05-24T07:36:27.145Z,17.00
2023-05-24T07:38:54.556Z,17.10
2023-05-24T07:41:29.423Z,17.40
2023-05-24T07:43:56.498Z,17.60
2023-05-24T07:46:23.595Z,17.90
2023-05-24T07:48:50.842Z,18.00
2023-05-24T07:51:17.901Z,18.20
2023-05-24T07:53:44.944Z,18.30
2023-05-24T07:56:13.331Z,18.40
2023-05-24T07:58:41.453Z,18.40
2023-05-24T08:01:09.198Z,18.50
2023-05-24T08:03:36.972Z,18.70
2023-05-24T08:06:04.256Z,18.90
2023-05-24T08:08:32.284Z,19.10
2023-05-24T08:10:59.292Z,19.40
2023-05-24T08:13:26.482Z,19.50
2023-05-24T08:15:53.570Z,19.60
2023-05-24T08:18:20.562Z,19.80
2023-05-24T08:20:47.583Z,19.90
2023-05-24T08:23:14.704Z,19.90
2023-05-24T08:25:42.050Z,19.70
2023-05-24T08:28:10.813Z,19.60
2023-05-24T08:30:38.272Z,19.60
2023-05-24T08:33:05.366Z,19.50
2023-05-24T08:35:32.361Z,19.60
2023-05-24T08:37:59.380Z,19.70
2023-05-24T08:40:26.427Z,19.80
2023-05-24T08:42:54.109Z,19.90
2023-05-24T08:45:22.739Z,20.00
2023-05-24T08:47:52.030Z,20.10
2023-05-24T08:50:20.554Z,20.30
2023-05-24T08:52:48.060Z,20.50
2023-05-24T08:55:15.827Z,20.70
2023-05-24T08:57:44.076Z,20.90
2023-05-24T09:00:13.094Z,21.20
2023-05-24T09:02:42.332Z,21.60
2023-05-24T09:05:22.011Z,21.90
2023-05-24T09:07:51.231Z,22.20
2023-05-24T09:10:21.697Z,22.50
2023-05-24T09:12:55.557Z,22.70
2023-05-24T09:15:22.647Z,22.90
2023-05-24T09:17:49.882Z,23.00
2023-05-24T09:20:16.942Z,23.10
2023-05-24T09:22:45.200Z,23.20
2023-05-24T09:25:15.130Z,23.20
2023-05-24T09:27:43.262Z,23.30
2023-05-24T09:30:12.872Z,23.50
2023-05-24T09:32:41.524Z,23.60
2023-05-24T09:35:10.433Z,23.70
2023-05-24T09:37:41.428Z,23.80
2023-05-24T09:40:20.179Z,24.00
2023-05-24T09:42:51.578Z,24.10
2023-05-24T09:45:18.735Z,24.10
2023-05-24T09:47:45.831Z,24.20
2023-05-24T09:50:15.993Z,24.20
2023-05-24T09:52:44.020Z,24.30
2023-05-24T09:55:19.421Z,24.30
2023-05-24T09:57:53.623Z,24.30
2023-05-24T10:00:25.219Z,24.30
2023-05-24T10:03:10.947Z,24.40
2023-05-24T10:05:39.185Z,24.40
2023-05-24T10:08:06.361Z,24.50
2023-05-24T10:10:34.169Z,24.50
2023-05-24T10:13:02.350Z,24.60
2023-05-24T10:15:30.920Z,24.60
2023-05-24T10:17:58.706Z,24.50
2023-05-24T10:20:26.952Z,24.50
2023-05-24T10:22:59.740Z,24.50
2023-05-24T10:25:28.617Z,24.60
2023-05-24T10:28:04.934Z,24.70
2023-05-24T10:30:37.898Z,24.80
2023-05-24T10:33:08.269Z,24.90
2023-05-24T10:35:38.420Z,25.00
2023-05-24T10:38:07.986Z,25.00
2023-05-24T10:40:35.769Z,25.00
2023-05-24T10:43:08.776Z,25.00
2023-05-24T10:45:41.296Z,25.00
2023-05-24T10:48:14.661Z,25.00
2023-05-24T10:50:43.403Z,25.00
2023-05-24T10:53:19.113Z,25.00
2023-05-24T10:56:09.659Z,25.00
2023-05-24T10:59:02.469Z,25.00
2023-05-24T11:01:32.367Z,25.10
2023-05-24T11:04:12.095Z,25.10
2023-05-24T11:06:49.681Z,25.30
2023-05-24T11:09:22.713Z,25.50
2023-05-24T11:12:09.858Z,25.50
2023-05-24T11:14:39.786Z,25.70
2023-05-24T11:17:08.300Z,25.70
2023-05-24T11:19:37.938Z,25.80
2023-05-24T11:22:08.221Z,25.90
2023-05-24T11:24:36.502Z,26.00
2023-05-24T11:27:03.886Z,26.20
2023-05-24T11:29:31.130Z,26.20
2023-05-24T11:32:05.423Z,26.20
2023-05-24T11:34:34.496Z,26.10
2023-05-24T11:37:03.138Z,25.80
2023-05-24T11:39:35.632Z,25.50
2023-05-24T11:42:06.599Z,25.10
2023-05-24T11:44:38.392Z,24.80
2023-05-24T11:47:07.656Z,24.70
2023-05-24T11:49:34.971Z,24.60
2023-05-24T11:52:02.771Z,24.60
2023-05-24T11:54:32.846Z,24.50
2023-05-24T11:57:00.328Z,24.40
2023-05-24T11:59:29.213Z,24.30
2023-05-24T12:02:05.691Z,24.10
2023-05-24T12:04:34.817Z,23.90
2023-05-24T12:07:03.202Z,23.90
2023-05-24T12:09:30.273Z,23.70
2023-05-24T12:11:58.788Z,23.70
2023-05-24T12:14:31.385Z,23.70
2023-05-24T12:16:59.120Z,23.50
2023-05-24T12:19:33.506Z,23.40
2023-05-24T12:22:06.691Z,23.30
2023-05-24T12:24:34.386Z,23.30
2023-05-24T12:27:03.513Z,23.30
2023-05-24T12:29:38.885Z,23.20
2023-05-24T12:32:11.965Z,23.30
2023-05-24T12:34:41.546Z,23.40
2023-05-24T12:37:09.618Z,23.30
2023-05-24T12:39:37.967Z,23.20
2023-05-24T12:42:05.243Z,23.30
2023-05-24T12:44:36.832Z,23.30
2023-05-24T12:47:05.606Z,23.30
2023-05-24T12:49:33.065Z,23.30
2023-05-24T12:52:02.064Z,23.30
2023-05-24T12:54:29.739Z,23.20
2023-05-24T12:56:57.916Z,23.20
2023-05-24T12:59:26.250Z,23.20
2023-05-24T13:01:53.634Z,23.30
2023-05-24T13:04:24.476Z,23.40
2023-05-24T13:06:51.649Z,23.40
2023-05-24T13:09:21.626Z,23.10
2023-05-24T13:11:49.364Z,22.90
2023-05-24T13:14:17.038Z,22.80
2023-05-24T13:16:44.620Z,22.70
2023-05-24T13:19:12.782Z,22.60
2023-05-24T13:21:40.032Z,22.50
2023-05-24T13:24:07.837Z,22.30
2023-05-24T13:26:37.665Z,22.40
2023-05-24T13:31:38.402Z,22.30
2023-05-24T13:34:06.068Z,22.40
2023-05-24T13:36:33.699Z,22.30
2023-05-24T13:41:31.756Z,22.40
2023-05-24T13:43:58.851Z,22.30
2023-05-24T13:46:26.050Z,22.10
2023-05-24T13:48:53.139Z,22.00
2023-05-24T13:51:20.195Z,21.90
2023-05-24T13:53:48.085Z,21.90
2023-05-24T13:56:16.312Z,21.80
2023-05-24T13:58:43.482Z,21.70
2023-05-24T14:01:11.198Z,21.70
2023-05-24T14:03:40.478Z,21.70
2023-05-24T14:06:08.726Z,21.80
2023-05-24T14:08:36.380Z,21.80
2023-05-24T14:11:03.443Z,21.70
2023-05-24T14:16:00.494Z,21.70
2023-05-24T14:18:27.639Z,21.60
2023-05-24T14:20:54.689Z,21.50
2023-05-24T14:23:21.774Z,21.30
2023-05-24T14:25:48.853Z,21.10
2023-05-24T14:28:15.836Z,21.10
2023-05-24T14:30:42.776Z,21.20
2023-05-24T14:33:12.157Z,21.10
2023-05-24T14:35:40.261Z,21.00
2023-05-24T14:38:08.935Z,21.00
2023-05-24T14:40:37.864Z,21.00
2023-05-24T14:43:06.277Z,20.90
2023-05-24T14:45:33.891Z,20.80
2023-05-24T14:48:01.550Z,20.80
2023-05-24T14:50:28.668Z,20.70
2023-05-24T14:52:55.854Z,20.50
2023-05-24T14:55:23.272Z,20.20
2023-05-24T14:57:50.491Z,20.20
2023-05-24T15:00:20.565Z,20.10
2023-05-24T15:02:49.481Z,20.00
2023-05-24T15:05:16.910Z,19.90
2023-05-24T15:07:43.927Z,19.80
2023-05-24T15:10:11.430Z,19.80
2023-05-24T15:12:38.403Z,19.60
2023-05-24T15:15:06.888Z,19.50
2023-05-24T15:17:34.080Z,19.50
2023-05-24T15:20:01.179Z,19.60
2023-05-24T15:22:28.154Z,19.60
2023-05-24T15:24:55.464Z,19.60
2023-05-24T15:27:22.558Z,19.60
2023-05-24T15:29:50.469Z,19.70
2023-05-24T15:32:17.447Z,19.80
2023-05-24T15:34:44.429Z,20.00
2023-05-24T15:37:11.403Z,20.10
2023-05-24T15:39:38.354Z,20.20
2023-05-24T15:42:06.063Z,20.30
2023-05-24T15:44:33.169Z,20.40
2023-05-24T15:47:00.347Z,20.50
2023-05-24T15:49:28.436Z,20.50
2023-05-24T15:52:03.098Z,20.50
2023-05-24T15:54:31.231Z,20.40
2023-05-24T15:56:58.289Z,20.30
2023-05-24T15:59:25.262Z,20.20
2023-05-24T16:01:52.397Z,20.00
2023-05-24T16:04:19.416Z,19.70
2023-05-24T16:06:47.244Z,19.50
2023-05-24T16:09:14.232Z,19.30
2023-05-24T16:11:41.606Z,19.20
2023-05-24T16:14:08.641Z,19.10
2023-05-24T16:16:36.759Z,19.00
2023-05-24T16:19:03.833Z,19.00
2023-05-24T16:21:33.043Z,18.90
2023-05-24T16:24:01.873Z,18.90
2023-05-24T16:26:32.412Z,18.90
2023-05-24T16:28:59.820Z,18.90
2023-05-24T16:31:27.065Z,18.90
2023-05-24T16:33:54.154Z,18.90
2023-05-24T16:36:21.410Z,18.90
2023-05-24T16:38:48.456Z,18.90
2023-05-24T16:41:15.430Z,18.90
2023-05-24T16:43:42.519Z,18.80
2023-05-24T16:46:11.024Z,18.80
2023-05-24T16:48:38.332Z,18.70
2023-05-24T16:51:05.541Z,18.60
2023-05-24T16:53:32.554Z,18.60
2023-05-24T16:55:59.633Z,18.50
2023-05-24T16:58:28.266Z,18.50
2023-05-24T17:00:56.708Z,18.50
2023-05-24T17:03:28.871Z,18.50
2023-05-24T17:05:59.495Z,18.40
2023-05-24T17:08:28.484Z,18.30
2023-05-24T17:10:59.143Z,18.30
2023-05-24T17:13:30.205Z,18.20
2023-05-24T17:16:00.058Z,18.10
2023-05-24T17:18:30.134Z,18.00
2023-05-24T17:21:02.905Z,18.00
2023-05-24T17:23:35.078Z,17.90
2023-05-24T17:26:03.030Z,17.80
2023-05-24T17:28:30.284Z,17.80
2023-05-24T17:30:59.279Z,17.70
2023-05-24T17:33:30.390Z,17.60
2023-05-24T17:35:57.767Z,17.60
2023-05-24T17:38:25.707Z,17.60
2023-05-24T17:40:59.494Z,17.50
2023-05-24T17:43:32.766Z,17.50
2023-05-24T17:46:04.135Z,17.50
2023-05-24T17:48:38.275Z,17.40
2023-05-24T17:51:08.368Z,17.40
2023-05-24T17:53:36.479Z,17.30
2023-05-24T17:56:04.833Z,17.30
2023-05-24T17:58:36.042Z,17.20
2023-05-24T18:01:08.635Z,17.20
2023-05-24T18:03:37.306Z,17.10
2023-05-24T18:06:07.357Z,17.00
2023-05-24T18:08:41.076Z,17.00
2023-05-24T18:11:08.693Z,16.90
2023-05-24T18:13:37.399Z,16.90
2023-05-24T18:16:04.625Z,16.80
2023-05-24T18:18:31.682Z,16.70
2023-05-24T18:20:58.936Z,16.60
2023-05-24T18:23:26.030Z,16.50
2023-05-24T18:26:00.978Z,16.50
2023-05-24T18:28:29.316Z,16.30
2023-05-24T18:30:56.529Z,16.30
2023-05-24T18:33:24.721Z,16.20
2023-05-24T18:35:51.867Z,16.10
2023-05-24T18:38:19.002Z,16.00
2023-05-24T18:40:45.959Z,15.90
2023-05-24T18:43:12.943Z,15.90
2023-05-24T18:45:40.007Z,15.80
2023-05-24T18:48:08.101Z,15.70
2023-05-24T18:50:35.225Z,15.70
2023-05-24T18:53:02.255Z,15.60
2023-05-24T18:55:29.245Z,15.50
2023-05-24T18:57:56.300Z,15.40
2023-05-24T19:00:24.585Z,15.30
2023-05-24T19:02:51.939Z,15.30
2023-05-24T19:05:20.236Z,15.20
2023-05-24T19:07:47.261Z,15.20
2023-05-24T19:10:15.432Z,15.20
2023-05-24T19:12:42.445Z,15.10
2023-05-24T19:15:09.768Z,15.00
2023-05-24T19:17:36.846Z,14.90
2023-05-24T19:20:04.120Z,14.90
2023-05-24T19:22:31.176Z,14.90
2023-05-24T19:24:58.203Z,14.80
2023-05-24T19:27:25.266Z,14.80
2023-05-24T19:29:52.322Z,14.70
2023-05-24T19:32:20.589Z,14.70
2023-05-24T19:34:47.870Z,14.60
2023-05-24T19:37:15.921Z,14.60
2023-05-24T19:39:42.957Z,14.60
2023-05-24T19:42:11.090Z,14.50
2023-05-24T19:44:38.164Z,14.50
2023-05-24T19:47:05.462Z,14.40
2023-05-24T19:49:32.519Z,14.40
2023-05-24T19:51:59.453Z,14.40
2023-05-24T19:54:26.526Z,14.30
2023-05-24T19:56:55.243Z,14.30
2023-05-24T19:59:22.282Z,14.20
2023-05-24T20:01:49.657Z,14.20
2023-05-24T20:04:16.750Z,14.20
2023-05-24T20:06:43.829Z,14.20
2023-05-24T20:09:12.107Z,14.10
2023-05-24T20:11:39.168Z,14.10
2023-05-24T20:14:06.132Z,14.00
2023-05-24T20:16:33.215Z,14.00
2023-05-24T20:19:00.252Z,14.00
2023-05-24T20:21:27.321Z,14.00
2023-05-24T20:23:57.958Z,14.00
2023-05-24T20:26:26.187Z,14.00
2023-05-24T20:28:53.195Z,14.00
2023-05-24T20:31:20.205Z,14.00
2023-05-24T20:33:47.340Z,13.90
2023-05-24T20:36:15.265Z,13.90
2023-05-24T20:38:42.345Z,13.90
2023-05-24T20:41:09.344Z,13.90
2023-05-24T20:43:36.340Z,13.90
2023-05-24T20:46:03.383Z,13.90
2023-05-24T20:50:57.860Z,13.80
2023-05-24T20:53:24.936Z,13.80
2023-05-24T20:55:52.048Z,13.80
2023-05-24T20:58:19.087Z,13.80
2023-05-24T21:00:46.220Z,13.80
2023-05-24T21:03:13.341Z,13.80
2023-05-24T21:05:40.599Z,13.80
2023-05-24T21:08:07.760Z,13.80
2023-05-24T21:10:35.194Z,13.70
2023-05-24T21:13:02.480Z,13.70
2023-05-24T21:15:29.530Z,13.80
2023-05-24T21:17:56.627Z,13.70
2023-05-24T21:20:23.931Z,13.70
2023-05-24T21:22:50.974Z,13.70
2023-05-24T21:25:17.944Z,13.70
2023-05-24T21:27:44.937Z,13.70
2023-05-24T21:30:12.575Z,13.70
2023-05-24T21:32:39.967Z,13.70
2023-05-24T21:35:07.982Z,13.70
2023-05-24T21:37:35.232Z,13.60
2023-05-24T21:40:02.277Z,13.70
2023-05-24T21:42:29.342Z,13.70
2023-05-24T21:44:56.389Z,13.60
2023-05-24T21:47:23.396Z,13.60
2023-05-24T21:49:51.143Z,13.60
2023-05-24T21:52:18.234Z,13.60
2023-05-24T21:54:45.339Z,13.60
2023-05-24T21:57:12.608Z,13.60
2023-05-24T21:59:39.582Z,13.60
2023-05-24T22:02:06.740Z,13.60
2023-05-24T22:04:33.794Z,13.60
2023-05-24T22:07:01.006Z,13.50
2023-05-24T22:09:28.009Z,13.50
2023-05-24T22:11:55.010Z,13.50
2023-05-24T22:14:22.049Z,13.50
2023-05-24T22:16:49.482Z,13.50
2023-05-24T22:19:20.427Z,13.50
2023-05-24T22:21:56.388Z,13.50
2023-05-24T22:24:23.451Z,13.50
2023-05-24T22:26:50.677Z,13.50
2023-05-24T22:29:17.647Z,13.50
2023-05-24T22:31:44.692Z,13.50
2023-05-24T22:34:12.099Z,13.50
2023-05-24T22:36:39.336Z,13.40
2023-05-24T22:39:06.375Z,13.50
2023-05-24T22:41:33.374Z,13.40
2023-05-24T22:44:00.496Z,13.40
2023-05-24T22:46:27.590Z,13.40
2023-05-24T22:49:13.346Z,13.40
2023-05-24T22:51:44.402Z,13.40
2023-05-24T22:54:11.876Z,13.40
2023-05-24T22:56:39.271Z,13.40
2023-05-24T22:59:07.131Z,13.40
2023-05-24T23:01:35.261Z,13.40
2023-05-24T23:04:18.854Z,13.40
2023-05-24T23:06:48.048Z,13.40
2023-05-24T23:09:15.127Z,13.40
2023-05-24T23:11:43.039Z,13.40
2023-05-24T23:14:11.582Z,13.30
2023-05-24T23:16:45.703Z,13.30
2023-05-24T23:19:19.007Z,13.30
2023-05-24T23:21:46.303Z,13.30
2023-05-24T23:24:16.057Z,13.30
2023-05-24T23:26:43.150Z,13.30
2023-05-24T23:29:10.666Z,13.30
2023-05-24T23:31:37.830Z,13.30
2023-05-24T23:34:05.597Z,13.30
2023-05-24T23:36:33.898Z,13.30
2023-05-24T23:39:00.874Z,13.30
2023-05-24T23:41:27.949Z,13.30
2023-05-24T23:43:54.984Z,13.30
2023-05-24T23:46:21.944Z,13.30
2023-05-24T23:48:49.014Z,13.30
2023-05-24T23:51:15.987Z,13.30
2023-05-24T23:53:42.968Z,13.30
2023-05-24T23:56:09.971Z,13.30
2023-05-24T23:58:37.746Z,13.30
